createdAt,value
2022-09-21T00:00:28.589Z,8.18
2022-09-21T00:03:31.218Z,8.13
2022-09-21T00:06:35.867Z,8.11
2022-09-21T00:09:38.536Z,8.09
2022-09-21T00:12:42.008Z,7.98
2022-09-21T00:15:44.634Z,8.04
2022-09-21T00:18:48.512Z,8.01
2022-09-21T00:21:55.401Z,7.95
2022-09-21T00:24:58.985Z,7.94
2022-09-21T00:28:02.173Z,7.93
2022-09-21T00:31:07.549Z,7.92
2022-09-21T00:34:10.438Z,7.91
2022-09-21T00:37:14.460Z,7.94
2022-09-21T00:40:17.392Z,8.01
2022-09-21T00:43:20.620Z,8.13
2022-09-21T00:46:28.817Z,8.23
2022-09-21T00:49:34.525Z,8.31
2022-09-21T00:52:43.011Z,8.40
2022-09-21T00:55:51.873Z,8.47
2022-09-21T00:58:55.731Z,8.51
2022-09-21T01:02:00.043Z,8.54
2022-09-21T01:05:04.415Z,8.58
2022-09-21T01:08:12.338Z,8.64
2022-09-21T01:11:28.693Z,8.71
2022-09-21T01:14:58.083Z,8.72
2022-09-21T01:18:10.799Z,8.74
2022-09-21T01:21:25.217Z,8.76
2022-09-21T01:24:51.182Z,8.79
2022-09-21T01:28:05.319Z,8.84
2022-09-21T01:31:15.292Z,8.84
2022-09-21T01:34:26.818Z,8.84
2022-09-21T01:37:36.480Z,8.81
2022-09-21T01:40:42.395Z,8.89
2022-09-21T01:43:50.555Z,8.92
2022-09-21T01:46:56.663Z,8.93
2022-09-21T01:50:03.506Z,8.95
2022-09-21T01:53:11.275Z,8.95
2022-09-21T01:56:19.788Z,8.99
2022-09-21T01:59:27.776Z,8.98
2022-09-21T02:02:38.474Z,8.96
2022-09-21T02:05:42.980Z,8.96
2022-09-21T02:08:46.773Z,8.99
2022-09-21T02:11:49.733Z,9.02
2022-09-21T02:14:55.600Z,9.01
2022-09-21T02:18:05.692Z,8.97
2022-09-21T02:21:17.387Z,8.93
2022-09-21T02:24:31.974Z,8.97
2022-09-21T02:27:44.207Z,8.97
2022-09-21T02:30:55.417Z,9.01
2022-09-21T02:34:04.599Z,8.95
2022-09-21T02:37:12.852Z,8.92
2022-09-21T02:40:26.648Z,8.92
2022-09-21T02:43:35.241Z,8.90
2022-09-21T02:46:42.033Z,8.83
2022-09-21T02:49:53.607Z,8.80
2022-09-21T02:52:57.399Z,8.80
2022-09-21T02:56:03.902Z,8.79
2022-09-21T02:59:08.033Z,8.75
2022-09-21T03:02:12.473Z,8.73
2022-09-21T03:05:16.938Z,8.72
2022-09-21T03:08:20.242Z,8.70
2022-09-21T03:11:22.947Z,8.71
2022-09-21T03:14:26.142Z,8.68
2022-09-21T03:17:28.806Z,8.64
2022-09-21T03:20:33.464Z,8.52
2022-09-21T03:23:36.464Z,8.51
2022-09-21T03:26:39.520Z,8.44
2022-09-21T03:29:42.515Z,8.45
2022-09-21T03:32:45.347Z,8.44
2022-09-21T03:35:50.706Z,8.39
2022-09-21T03:38:53.363Z,8.39
2022-09-21T03:41:57.250Z,8.43
2022-09-21T03:45:00.351Z,8.41
2022-09-21T03:48:03.266Z,8.39
2022-09-21T03:51:07.382Z,8.35
2022-09-21T03:54:10.593Z,8.23
2022-09-21T03:57:13.563Z,8.30
2022-09-21T04:00:16.816Z,8.30
2022-09-21T04:03:20.807Z,8.35
2022-09-21T04:06:25.104Z,8.34
2022-09-21T04:09:27.971Z,8.28
2022-09-21T04:12:31.282Z,8.27
2022-09-21T04:15:34.094Z,8.26
2022-09-21T04:18:37.458Z,8.27
2022-09-21T04:21:41.845Z,8.26
2022-09-21T04:24:44.822Z,8.27
2022-09-21T04:27:47.896Z,8.30
2022-09-21T04:30:54.296Z,8.30
2022-09-21T04:33:58.758Z,8.29
2022-09-21T04:37:02.862Z,8.30
2022-09-21T04:40:07.153Z,8.26
2022-09-21T04:43:10.123Z,8.24
2022-09-21T04:46:15.035Z,8.18
2022-09-21T04:49:17.697Z,8.12
2022-09-21T04:52:22.001Z,8.14
2022-09-21T04:55:25.015Z,8.08
2022-09-21T04:58:27.837Z,8.08
2022-09-21T05:01:30.554Z,8.09
2022-09-21T05:04:33.505Z,8.12
2022-09-21T05:07:37.467Z,8.17
2022-09-21T05:10:39.365Z,8.19
2022-09-21T05:13:42.056Z,8.25
2022-09-21T05:16:45.102Z,8.24
2022-09-21T05:19:47.903Z,8.27
2022-09-21T05:22:52.176Z,8.24
2022-09-21T05:25:54.891Z,8.25
2022-09-21T05:28:58.337Z,8.27
2022-09-21T05:32:08.771Z,8.29
2022-09-21T05:35:19.406Z,8.30
2022-09-21T05:38:24.386Z,8.30
2022-09-21T05:41:27.621Z,8.29
2022-09-21T05:44:30.815Z,8.29
2022-09-21T05:47:40.222Z,8.32
2022-09-21T05:50:50.863Z,8.35
2022-09-21T05:54:02.746Z,8.41
2022-09-21T05:57:12.511Z,8.44
2022-09-21T06:00:19.239Z,8.48
2022-09-21T06:03:29.445Z,8.48
2022-09-21T06:06:32.370Z,8.53
2022-09-21T06:09:40.037Z,8.57
2022-09-21T06:12:45.725Z,8.62
2022-09-21T06:15:48.615Z,8.65
2022-09-21T06:18:51.294Z,8.72
2022-09-21T06:21:53.915Z,8.80
2022-09-21T06:24:57.986Z,8.87
2022-09-21T06:28:04.374Z,8.92
2022-09-21T06:31:07.055Z,9.00
2022-09-21T06:34:10.048Z,9.08
2022-09-21T06:37:12.768Z,9.22
2022-09-21T06:40:17.616Z,9.23
2022-09-21T06:43:20.799Z,9.36
2022-09-21T06:46:23.644Z,9.33
2022-09-21T06:49:28.912Z,9.33
2022-09-21T06:52:31.539Z,9.44
2022-09-21T06:55:35.861Z,9.36
2022-09-21T06:58:39.082Z,9.35
2022-09-21T07:01:41.794Z,9.23
2022-09-21T07:04:44.906Z,9.19
2022-09-21T07:07:47.667Z,9.21
2022-09-21T07:10:51.839Z,9.11
2022-09-21T07:13:55.292Z,9.14
2022-09-21T07:16:57.975Z,9.16
2022-09-21T07:20:01.941Z,9.34
2022-09-21T07:23:11.342Z,9.34
2022-09-21T07:26:16.278Z,9.41
2022-09-21T07:29:18.955Z,9.43
2022-09-21T07:32:22.301Z,9.45
2022-09-21T07:35:24.977Z,9.40
2022-09-21T07:38:28.068Z,9.40
2022-09-21T07:41:32.254Z,9.49
2022-09-21T07:44:35.310Z,9.42
2022-09-21T07:47:37.945Z,9.46
2022-09-21T07:50:40.777Z,9.39
2022-09-21T07:53:45.466Z,9.26
2022-09-21T07:57:09.480Z,9.18
2022-09-21T08:00:12.474Z,9.21
2022-09-21T08:03:15.122Z,9.30
2022-09-21T08:06:17.968Z,9.32
2022-09-21T08:09:20.717Z,9.16
2022-09-21T08:12:24.884Z,9.11
2022-09-21T08:15:47.684Z,9.08
2022-09-21T08:18:51.724Z,9.09
2022-09-21T08:21:57.585Z,9.10
2022-09-21T08:25:01.118Z,9.13
2022-09-21T08:28:09.606Z,9.23
2022-09-21T08:31:12.577Z,9.22
2022-09-21T08:34:16.257Z,9.22
2022-09-21T08:37:19.448Z,9.32
2022-09-21T08:40:22.436Z,9.32
2022-09-21T08:43:32.869Z,9.36
2022-09-21T08:46:38.088Z,9.41
2022-09-21T08:49:44.155Z,9.49
2022-09-21T08:52:47.952Z,9.60
2022-09-21T08:55:50.710Z,9.72
2022-09-21T08:58:54.754Z,9.90
2022-09-21T09:02:05.162Z,9.96
2022-09-21T09:05:23.881Z,10.11
2022-09-21T09:09:00.328Z,10.31
2022-09-21T09:12:23.472Z,10.42
2022-09-21T09:15:49.937Z,10.61
2022-09-21T09:18:54.478Z,10.80
2022-09-21T09:21:57.539Z,11.04
2022-09-21T09:25:05.345Z,11.16
2022-09-21T09:28:21.480Z,11.25
2022-09-21T09:31:30.549Z,11.43
2022-09-21T09:34:37.105Z,11.53
2022-09-21T09:37:42.276Z,11.63
2022-09-21T09:41:02.635Z,11.79
2022-09-21T09:44:17.672Z,11.90
2022-09-21T09:47:32.314Z,12.12
2022-09-21T09:50:37.314Z,12.12
2022-09-21T09:53:40.543Z,12.35
2022-09-21T09:56:43.591Z,12.54
2022-09-21T09:59:54.376Z,12.59
2022-09-21T10:03:01.109Z,12.80
2022-09-21T10:06:03.801Z,12.88
2022-09-21T10:09:21.424Z,12.94
2022-09-21T10:12:27.495Z,13.03
2022-09-21T10:15:30.810Z,13.11
2022-09-21T10:18:39.581Z,13.33
2022-09-21T10:21:47.594Z,13.58
2022-09-21T10:24:54.722Z,13.70
2022-09-21T10:27:57.900Z,13.88
2022-09-21T10:31:23.747Z,14.06
2022-09-21T10:34:30.175Z,14.18
2022-09-21T10:37:35.010Z,14.28
2022-09-21T10:40:39.032Z,14.39
2022-09-21T10:43:44.604Z,14.47
2022-09-21T10:46:48.683Z,14.57
2022-09-21T10:49:55.982Z,14.73
2022-09-21T10:53:12.225Z,14.78
2022-09-21T10:56:18.760Z,14.93
2022-09-21T10:59:25.178Z,15.01
2022-09-21T11:02:36.700Z,15.04
2022-09-21T11:05:45.459Z,15.16
2022-09-21T11:08:56.195Z,15.23
2022-09-21T11:12:05.261Z,15.35
2022-09-21T11:15:18.149Z,15.32
2022-09-21T11:18:25.964Z,15.49
2022-09-21T11:21:37.450Z,15.60
2022-09-21T11:24:50.209Z,15.57
2022-09-21T11:27:57.180Z,15.62
2022-09-21T11:31:21.070Z,15.68
2022-09-21T11:34:39.567Z,15.72
2022-09-21T11:37:52.375Z,15.75
2022-09-21T11:41:14.725Z,15.83
2022-09-21T11:44:29.716Z,15.84
2022-09-21T11:47:47.874Z,15.83
2022-09-21T11:51:09.762Z,15.91
2022-09-21T11:54:37.774Z,15.99
2022-09-21T11:57:51.604Z,16.11
2022-09-21T12:01:12.071Z,16.24
2022-09-21T12:04:38.252Z,16.28
2022-09-21T12:07:58.234Z,16.35
2022-09-21T12:11:13.253Z,16.44
2022-09-21T12:14:23.534Z,16.47
2022-09-21T12:17:42.131Z,16.51
2022-09-21T12:20:50.457Z,16.58
2022-09-21T12:23:55.978Z,16.64
2022-09-21T12:27:11.218Z,16.67
2022-09-21T12:30:16.991Z,16.66
2022-09-21T12:33:26.502Z,16.75
2022-09-21T12:36:37.025Z,16.87
2022-09-21T12:39:48.376Z,16.87
2022-09-21T12:43:02.019Z,16.87
2022-09-21T12:46:09.173Z,16.91
2022-09-21T12:49:16.726Z,17.08
2022-09-21T12:52:23.804Z,17.27
2022-09-21T12:55:37.418Z,17.45
2022-09-21T12:58:51.986Z,17.39
2022-09-21T13:02:12.221Z,17.50
2022-09-21T13:05:23.142Z,17.58
2022-09-21T13:08:29.712Z,17.58
2022-09-21T13:11:33.940Z,17.60
2022-09-21T13:14:44.453Z,17.51
2022-09-21T13:17:47.204Z,17.45
2022-09-21T13:20:52.170Z,17.33
2022-09-21T13:23:58.254Z,17.43
2022-09-21T13:27:05.254Z,17.34
2022-09-21T13:30:32.526Z,17.29
2022-09-21T13:33:42.055Z,17.35
2022-09-21T13:36:44.740Z,17.49
2022-09-21T13:39:52.198Z,17.63
2022-09-21T13:42:54.844Z,17.70
2022-09-21T13:45:59.453Z,17.77
2022-09-21T13:49:07.043Z,17.73
2022-09-21T13:52:30.767Z,17.67
2022-09-21T13:55:35.978Z,17.70
2022-09-21T13:58:45.904Z,17.43
2022-09-21T14:01:51.023Z,17.37
2022-09-21T14:04:55.632Z,17.34
2022-09-21T14:08:02.348Z,17.24
2022-09-21T14:11:09.650Z,17.01
2022-09-21T14:14:22.718Z,17.01
2022-09-21T14:17:38.099Z,17.09
2022-09-21T14:20:42.374Z,17.23
2022-09-21T14:24:24.808Z,17.25
2022-09-21T14:27:31.581Z,17.31
2022-09-21T14:30:36.862Z,17.37
2022-09-21T14:33:47.291Z,17.40
2022-09-21T14:36:53.246Z,17.40
2022-09-21T14:39:57.489Z,17.43
2022-09-21T14:43:03.580Z,17.47
2022-09-21T14:46:32.709Z,17.45
2022-09-21T14:49:48.253Z,17.54
2022-09-21T14:53:08.677Z,17.54
2022-09-21T14:56:24.112Z,17.51
2022-09-21T14:59:40.348Z,17.44
2022-09-21T15:02:45.558Z,17.40
2022-09-21T15:05:56.517Z,17.36
2022-09-21T15:09:38.709Z,17.33
2022-09-21T15:12:55.082Z,17.26
2022-09-21T15:16:12.795Z,17.17
2022-09-21T15:19:22.758Z,17.17
2022-09-21T15:22:27.583Z,17.08
2022-09-21T15:25:34.810Z,17.03
2022-09-21T15:29:05.095Z,17.04
2022-09-21T15:32:03.990Z,17.04
2022-09-21T15:35:22.577Z,17.03
2022-09-21T15:38:30.890Z,17.05
2022-09-21T15:41:43.269Z,17.06
2022-09-21T15:44:48.702Z,17.01
2022-09-21T15:47:52.110Z,17.00
2022-09-21T15:50:58.866Z,17.06
2022-09-21T15:54:09.689Z,16.98
2022-09-21T15:57:29.363Z,16.81
2022-09-21T16:00:35.514Z,16.64
2022-09-21T16:03:39.963Z,16.66
2022-09-21T16:06:46.777Z,16.60
2022-09-21T16:09:51.695Z,16.44
2022-09-21T16:13:02.079Z,16.40
2022-09-21T16:16:05.861Z,16.31
2022-09-21T16:19:09.836Z,16.24
2022-09-21T16:22:13.242Z,16.11
2022-09-21T16:25:32.575Z,15.95
2022-09-21T16:28:38.087Z,15.75
2022-09-21T16:31:41.207Z,15.60
2022-09-21T16:34:45.791Z,15.35
2022-09-21T16:37:49.229Z,15.18
2022-09-21T16:40:54.399Z,14.91
2022-09-21T16:43:57.276Z,14.77
2022-09-21T16:47:02.062Z,14.65
2022-09-21T16:50:12.735Z,14.57
2022-09-21T16:53:15.448Z,14.49
2022-09-21T16:56:19.970Z,14.38
2022-09-21T16:59:23.242Z,14.19
2022-09-21T17:02:25.969Z,14.07
2022-09-21T17:05:29.000Z,13.97
2022-09-21T17:08:32.698Z,13.83
2022-09-21T17:11:36.813Z,13.79
2022-09-21T17:14:43.054Z,13.61
2022-09-21T17:17:49.365Z,13.54
2022-09-21T17:20:52.431Z,13.42
2022-09-21T17:23:55.062Z,13.28
2022-09-21T17:26:59.164Z,13.19
2022-09-21T17:30:03.414Z,13.07
2022-09-21T17:33:06.522Z,12.98
2022-09-21T17:36:13.919Z,12.86
2022-09-21T17:39:16.615Z,12.81
2022-09-21T17:42:25.254Z,12.70
2022-09-21T17:45:38.950Z,12.61
2022-09-21T17:48:42.935Z,12.54
2022-09-21T17:52:03.489Z,12.48
2022-09-21T17:55:08.644Z,12.25
2022-09-21T17:58:39.862Z,12.20
2022-09-21T18:01:42.913Z,12.08
2022-09-21T18:04:47.255Z,11.98
2022-09-21T18:07:51.740Z,11.91
2022-09-21T18:11:06.888Z,11.83
2022-09-21T18:14:21.760Z,11.77
2022-09-21T18:17:40.307Z,11.71
2022-09-21T18:20:53.915Z,11.66
2022-09-21T18:24:19.874Z,11.56
2022-09-21T18:27:24.403Z,11.53
2022-09-21T18:30:29.159Z,11.47
2022-09-21T18:33:45.362Z,11.27
2022-09-21T18:36:57.564Z,11.29
2022-09-21T18:40:11.231Z,11.22
2022-09-21T18:43:27.558Z,11.16
2022-09-21T18:46:40.314Z,11.09
2022-09-21T18:49:54.558Z,11.01
2022-09-21T18:53:03.737Z,10.94
2022-09-21T18:56:08.346Z,10.88
2022-09-21T18:59:13.014Z,10.84
2022-09-21T19:02:20.728Z,10.78
2022-09-21T19:05:24.322Z,10.73
2022-09-21T19:08:37.588Z,10.61
2022-09-21T19:11:46.679Z,10.56
2022-09-21T19:14:58.952Z,10.50
2022-09-21T19:18:15.852Z,10.43
2022-09-21T19:21:31.700Z,10.38
2022-09-21T19:24:46.375Z,10.30
2022-09-21T19:27:55.734Z,10.25
2022-09-21T19:31:04.401Z,10.22
2022-09-21T19:34:15.682Z,10.14
2022-09-21T19:37:18.614Z,10.11
2022-09-21T19:40:23.638Z,10.04
2022-09-21T19:43:31.739Z,10.01
2022-09-21T19:46:40.624Z,9.97
2022-09-21T19:49:49.756Z,9.90
2022-09-21T19:53:13.337Z,9.84
2022-09-21T19:56:35.420Z,9.78
2022-09-21T19:59:44.754Z,9.73
2022-09-21T20:03:02.579Z,9.69
2022-09-21T20:06:15.282Z,9.63
2022-09-21T20:09:25.025Z,9.57
2022-09-21T20:12:36.102Z,9.52
2022-09-21T20:15:44.977Z,9.47
2022-09-21T20:18:55.098Z,9.44
2022-09-21T20:22:04.588Z,9.42
2022-09-21T20:25:16.530Z,9.36
2022-09-21T20:28:20.576Z,9.31
2022-09-21T20:31:25.809Z,9.25
2022-09-21T20:34:28.844Z,9.19
2022-09-21T20:37:32.888Z,9.14
2022-09-21T20:40:35.903Z,9.13
2022-09-21T20:43:38.690Z,9.09
2022-09-21T20:46:41.332Z,9.05
2022-09-21T20:49:44.601Z,9.00
2022-09-21T20:52:49.118Z,8.96
2022-09-21T20:55:56.734Z,8.86
2022-09-21T20:58:59.714Z,8.87
2022-09-21T21:02:02.467Z,8.83
2022-09-21T21:05:05.812Z,8.79
2022-09-21T21:08:10.693Z,8.75
2022-09-21T21:11:14.283Z,8.73
2022-09-21T21:14:17.406Z,8.68
2022-09-21T21:17:20.038Z,8.63
2022-09-21T21:20:23.760Z,8.58
2022-09-21T21:23:28.263Z,8.52
2022-09-21T21:26:50.643Z,8.48
2022-09-21T21:29:55.739Z,8.45
2022-09-21T21:32:58.506Z,8.41
2022-09-21T21:36:06.439Z,8.37
2022-09-21T21:39:11.231Z,8.34
2022-09-21T21:42:13.922Z,8.31
2022-09-21T21:45:17.010Z,8.27
2022-09-21T21:48:20.159Z,8.24
2022-09-21T21:51:23.265Z,8.24
2022-09-21T21:54:27.400Z,8.18
2022-09-21T21:57:30.463Z,8.15
2022-09-21T22:00:33.115Z,8.12
2022-09-21T22:03:36.546Z,8.07
2022-09-21T22:06:40.587Z,8.03
2022-09-21T22:09:44.960Z,8.01
2022-09-21T22:12:47.577Z,8.00
2022-09-21T22:15:50.919Z,7.97
2022-09-21T22:18:54.230Z,7.95
2022-09-21T22:21:57.727Z,7.92
2022-09-21T22:25:02.070Z,7.87
2022-09-21T22:28:05.499Z,7.86
2022-09-21T22:31:11.309Z,7.80
2022-09-21T22:34:14.956Z,7.79
2022-09-21T22:37:17.658Z,7.74
2022-09-21T22:40:22.950Z,7.70
2022-09-21T22:43:26.272Z,7.68
2022-09-21T22:46:30.952Z,7.68
2022-09-21T22:49:34.033Z,7.62
2022-09-21T22:52:36.668Z,7.58
2022-09-21T22:55:41.052Z,7.55
2022-09-21T22:58:47.370Z,7.55
2022-09-21T23:01:50.159Z,7.53
2022-09-21T23:04:53.287Z,7.49
2022-09-21T23:07:57.043Z,7.47
2022-09-21T23:11:09.060Z,7.45
2022-09-21T23:14:13.247Z,7.38
2022-09-21T23:17:15.906Z,7.43
2022-09-21T23:20:19.609Z,7.38
2022-09-21T23:23:22.259Z,7.38
2022-09-21T23:26:27.791Z,7.33
2022-09-21T23:29:30.818Z,7.28
2022-09-21T23:32:33.443Z,7.24
2022-09-21T23:35:36.711Z,7.22
2022-09-21T23:38:39.620Z,7.16
2022-09-21T23:41:44.838Z,7.12
2022-09-21T23:44:47.489Z,7.08
2022-09-21T23:47:50.691Z,7.04
2022-09-21T23:50:53.855Z,7.05
2022-09-21T23:53:57.073Z,6.98
2022-09-21T23:57:01.542Z,7.03
